Terminal Aerodrome Forecast
Issued by NWS Pueblo, CO

Home | Current Version | Previous Version | Text Only | Print | Product List | Glossary On
Versions: 1 2 3 4 5 6 7 8 9 10 11 12 13 14 15 16 17 18 19 20 21
000
FTUS45 KPUB 162126 AAA
TAFCOS
TAF AMD
KCOS 162126Z 1621/1718 01012G24KT P6SM VCSH SCT020 BKN040
     FM170000 05010G20KT 3SM -SN BR OVC010
     FM170500 17010KT 6SM BR SCT010 BKN025
     FM170800 VRB06KT P6SM SCT020 BKN060
     FM171300 VRB06KT P6SM SCT060 SCT120=

USA.gov is the U.S. government's official web portal to all federal, state and local government web resources and services.